Time;durP1;ratioP1;P1;durP2;ratioP2;P2;SDS_P1;SDS_P2;PMS_P1;PMS_P2;Temp;Humidity;BMP_temperature;BMP_pressure;BME280_temperature;BME280_humidity;BME280_pressure;Samples;Min_cycle;Max_cycle;Signal;HPM_P1;HPM_P2
2021/04/29 00:00:03;;;;;;;5.30;4.60;;;14.20;99.00;14.20;98625.00;;;;338124;28;97009;-89
2021/04/29 00:00:16;;;;;;;5.72;4.25;;;14.10;99.00;14.20;98633.00;;;;336869;28;85232;-88
2021/04/29 00:00:28;;;;;;;5.70;4.20;;;14.20;99.10;14.10;98626.00;;;;337931;28;95286;-89
2021/04/29 00:00:39;;;;;;;5.18;4.32;;;14.10;99.10;13.90;98638.00;;;;338560;28;84799;-89
2021/04/29 00:00:50;;;;;;;4.95;4.25;;;14.10;99.00;13.80;98631.00;;;;336907;28;93446;-88
2021/04/29 00:01:02;;;;;;;5.43;4.75;;;14.20;99.30;14.00;98624.00;;;;337490;28;83404;-89
2021/04/29 00:01:14;;;;;;;5.63;4.90;;;14.10;99.00;14.10;98637.00;;;;335464;28;96883;-88
2021/04/29 00:01:25;;;;;;;6.05;5.05;;;14.20;99.10;14.00;98633.00;;;;338791;28;85044;-88
2021/04/29 00:01:37;;;;;;;7.32;5.13;;;14.20;99.10;13.80;98638.00;;;;338121;28;96983;-88
2021/04/29 00:01:48;;;;;;;8.23;5.20;;;14.10;98.90;13.70;98631.00;;;;340126;28;83920;-89
2021/04/29 00:02:00;;;;;;;7.80;5.18;;;14.20;98.80;13.80;98632.00;;;;336809;28;96845;-89
2021/04/29 00:02:12;;;;;;;5.53;5.03;;;14.10;98.70;13.80;98632.00;;;;336803;28;83623;-89
2021/04/29 00:02:24;;;;;;;5.43;4.93;;;14.10;98.80;13.70;98627.00;;;;335248;28;95807;-88
2021/04/29 00:02:36;;;;;;;5.38;4.88;;;14.10;98.70;13.60;98626.00;;;;337525;28;83535;-87
2021/04/29 00:02:48;;;;;;;5.30;4.80;;;14.10;98.70;13.50;98634.00;;;;339479;28;96424;-88
2021/04/29 00:02:59;;;;;;;5.22;4.65;;;14.10;98.70;13.60;98637.00;;;;337698;28;82434;-88
2021/04/29 00:03:11;;;;;;;5.85;4.82;;;14.10;98.70;13.80;98634.00;;;;339124;28;95037;-89
2021/04/29 00:03:23;;;;;;;5.93;4.53;;;14.10;98.70;13.90;98634.00;;;;339976;28;83640;-89
2021/04/29 00:03:35;;;;;;;7.63;4.85;;;14.10;98.80;13.80;98633.00;;;;336635;28;95901;-88
2021/04/29 00:03:46;;;;;;;7.40;4.85;;;14.00;98.80;13.70;98635.00;;;;341201;28;85281;-89
2021/04/29 00:03:58;;;;;;;7.57;5.10;;;14.10;98.80;13.70;98631.00;;;;338158;28;96714;-88
2021/04/29 00:04:10;;;;;;;5.95;5.03;;;14.00;98.80;13.70;98634.00;;;;341394;28;83867;-89
2021/04/29 00:04:22;;;;;;;8.25;5.35;;;14.00;98.80;13.60;98633.00;;;;336679;28;94689;-89
2021/04/29 00:04:33;;;;;;;9.25;5.20;;;14.00;98.80;13.60;98636.00;;;;337325;28;84668;-89
2021/04/29 00:04:45;;;;;;;7.78;4.90;;;14.00;98.80;13.70;98638.00;;;;336815;28;96073;-89
2021/04/29 00:04:56;;;;;;;6.07;4.55;;;14.00;99.10;13.80;98630.00;;;;337611;28;83374;-89
2021/04/29 00:05:09;;;;;;;6.82;4.45;;;14.00;98.90;13.70;98638.00;;;;339419;28;95158;-89
2021/04/29 00:05:22;;;;;;;7.72;4.32;;;14.00;99.00;13.70;98634.00;;;;339821;28;83502;-89
2021/04/29 00:05:33;;;;;;;7.25;4.68;;;14.00;98.90;13.80;98636.00;;;;337962;28;95630;-89
2021/04/29 00:05:44;;;;;;;5.95;4.80;;;13.90;99.00;13.90;98631.00;;;;337401;28;83467;-89
2021/04/29 00:05:56;;;;;;;5.65;4.97;;;14.00;99.00;13.90;98641.00;;;;336750;28;96600;-89
2021/04/29 00:06:08;;;;;;;6.60;5.20;;;13.90;99.00;13.90;98627.00;;;;340047;28;83916;-89
2021/04/29 00:06:19;;;;;;;6.25;5.43;;;14.00;99.00;13.90;98630.00;;;;337865;28;97277;-89
2021/04/29 00:06:31;;;;;;;5.80;5.15;;;14.00;99.10;13.80;98626.00;;;;339878;28;84601;-89
2021/04/29 00:06:42;;;;;;;5.90;5.28;;;14.00;99.10;13.80;98629.00;;;;339417;28;95984;-89
2021/04/29 00:06:53;;;;;;;6.15;5.32;;;13.90;99.10;13.80;98632.00;;;;340167;28;82978;-89
2021/04/29 00:07:05;;;;;;;6.18;5.13;;;13.90;99.10;13.80;98629.00;;;;339416;28;97067;-88
2021/04/29 00:07:16;;;;;;;5.30;4.63;;;13.90;99.10;13.90;98629.00;;;;338752;28;83980;-88
2021/04/29 00:07:28;;;;;;;6.00;4.90;;;13.90;99.20;13.90;98635.00;;;;336784;28;96805;-90
2021/04/29 00:07:39;;;;;;;6.13;4.72;;;13.90;99.20;13.90;98633.00;;;;337663;28;83352;-89
2021/04/29 00:07:50;;;;;;;6.20;4.85;;;13.90;99.40;14.00;98634.00;;;;337826;28;95794;-89
2021/04/29 00:08:02;;;;;;;6.65;4.53;;;14.00;99.20;14.10;98632.00;;;;338875;28;84125;-88
2021/04/29 00:08:13;;;;;;;6.50;4.70;;;13.90;99.30;14.00;98639.00;;;;340694;28;96174;-88
2021/04/29 00:08:25;;;;;;;6.57;5.05;;;13.90;99.20;13.80;98638.00;;;;337411;28;83420;-88
2021/04/29 00:08:37;;;;;;;6.00;5.10;;;13.90;99.10;13.80;98640.00;;;;338028;28;96050;-89
2021/04/29 00:08:48;;;;;;;5.88;5.00;;;14.00;99.10;13.80;98632.00;;;;337368;28;84716;-89
2021/04/29 00:09:00;;;;;;;5.50;4.70;;;14.00;99.20;13.80;98632.00;;;;338288;28;94504;-89
2021/04/29 00:09:12;;;;;;;5.30;4.80;;;13.90;99.20;13.80;98639.00;;;;338842;28;85316;-89
2021/04/29 00:09:23;;;;;;;5.20;4.70;;;14.00;99.30;13.80;98625.00;;;;339353;28;96892;-88
2021/04/29 00:09:35;;;;;;;5.47;4.82;;;13.90;99.20;13.70;98630.00;;;;337851;28;83660;-89
2021/04/29 00:09:47;;;;;;;6.97;5.22;;;13.90;99.20;13.70;98630.00;;;;336939;28;96174;-89
2021/04/29 00:09:58;;;;;;;7.75;5.20;;;13.90;99.20;13.80;98637.00;;;;336363;28;84520;-88
2021/04/29 00:10:14;;;;;;;6.95;4.72;;;13.90;99.20;13.80;98632.00;;;;335615;28;94651;-88
2021/04/29 00:10:30;;;;;;;5.80;4.80;;;13.90;99.30;13.90;98644.00;;;;336344;28;85006;-89
2021/04/29 00:10:41;;;;;;;5.72;4.75;;;13.90;99.30;14.10;98635.00;;;;335813;28;92740;-88
2021/04/29 00:10:52;;;;;;;5.28;4.47;;;13.90;99.40;14.20;98637.00;;;;336500;28;83453;-88
2021/04/29 00:11:07;;;;;;;4.88;4.47;;;14.00;99.50;14.20;98634.00;;;;338274;28;95933;-88
2021/04/29 00:11:18;;;;;;;5.32;4.82;;;14.00;99.50;14.20;98624.00;;;;339106;28;83473;-89
2021/04/29 00:11:30;;;;;;;5.45;4.90;;;14.00;99.40;14.10;98642.00;;;;339708;28;96941;-88
2021/04/29 00:11:41;;;;;;;6.18;4.93;;;14.00;99.30;14.10;98636.00;;;;338441;28;83810;-89
2021/04/29 00:11:52;;;;;;;6.15;4.95;;;14.00;99.30;14.10;98641.00;;;;339819;28;95513;-89
2021/04/29 00:12:05;;;;;;;6.25;4.70;;;14.00;99.30;14.00;98633.00;;;;337788;28;84897;-89
2021/04/29 00:12:17;;;;;;;6.82;5.10;;;14.00;99.30;14.00;98642.00;;;;339677;28;96006;-88
2021/04/29 00:12:28;;;;;;;5.93;5.00;;;14.00;99.20;14.10;98633.00;;;;337777;28;83473;-88
2021/04/29 00:12:39;;;;;;;5.85;4.85;;;14.00;99.30;14.10;98636.00;;;;338567;28;96086;-89
2021/04/29 00:12:55;;;;;;;6.13;4.82;;;14.00;99.30;14.10;98641.00;;;;339300;28;83800;-88
2021/04/29 00:13:06;;;;;;;5.80;4.90;;;14.00;99.30;14.20;98637.00;;;;338558;28;96455;-89
2021/04/29 00:13:18;;;;;;;5.60;5.07;;;14.00;99.40;14.10;98635.00;;;;339066;28;83707;-89
2021/04/29 00:13:29;;;;;;;5.28;4.78;;;14.10;99.40;14.00;98643.00;;;;341029;28;95541;-89
2021/04/29 00:13:40;;;;;;;5.13;4.63;;;14.10;99.40;13.90;98637.00;;;;339385;28;83759;-88
2021/04/29 00:13:52;;;;;;;5.05;4.55;;;14.00;99.30;13.80;98636.00;;;;337131;28;96556;-88
2021/04/29 00:14:07;;;;;;;5.32;4.82;;;14.00;99.30;13.70;98642.00;;;;337717;28;83745;-88
2021/04/29 00:14:18;;;;;;;5.75;5.15;;;14.00;99.30;13.80;98645.00;;;;338461;28;97601;-88
2021/04/29 00:14:30;;;;;;;5.63;5.05;;;14.00;99.30;14.00;98637.00;;;;339088;28;84567;-88
2021/04/29 00:14:41;;;;;;;5.10;4.57;;;14.00;99.30;14.10;98646.00;;;;336611;28;93932;-89
2021/04/29 00:14:52;;;;;;;4.30;3.88;;;14.00;99.40;14.30;98633.00;;;;337869;28;84698;-89
2021/04/29 00:15:05;;;;;;;4.65;4.13;;;14.10;99.40;14.30;98644.00;;;;337165;28;95502;-89
2021/04/29 00:15:20;;;;;;;5.10;4.63;;;14.10;99.40;14.30;98637.00;;;;336585;28;85288;-88
2021/04/29 00:15:31;;;;;;;5.57;5.03;;;14.10;99.40;14.40;98632.00;;;;335803;28;95863;-91
2021/04/29 00:15:44;;;;;;;5.63;5.03;;;14.10;99.40;14.40;98641.00;;;;339156;28;84769;-89
2021/04/29 00:15:56;;;;;;;6.00;4.75;;;14.10;99.30;14.40;98638.00;;;;339890;28;96927;-88
2021/04/29 00:16:07;;;;;;;6.54;4.88;;;14.20;99.30;14.30;98639.00;;;;339191;28;83915;-88
2021/04/29 00:16:19;;;;;;;7.30;5.35;;;14.10;99.20;14.10;98635.00;;;;337053;28;97041;-89
2021/04/29 00:16:30;;;;;;;6.18;5.30;;;14.20;99.20;14.10;98634.00;;;;337798;28;83654;-89
2021/04/29 00:16:42;;;;;;;5.57;4.95;;;14.20;99.10;14.00;98638.00;;;;337187;28;96492;-88
2021/04/29 00:16:54;;;;;;;5.28;4.78;;;14.20;99.10;14.10;98633.00;;;;341816;28;84801;-89
2021/04/29 00:17:06;;;;;;;6.53;4.72;;;14.20;99.40;14.20;98637.00;;;;335562;28;97220;-88
2021/04/29 00:17:17;;;;;;;6.30;4.57;;;14.10;99.20;14.20;98637.00;;;;339375;28;84467;-88
2021/04/29 00:17:29;;;;;;;6.68;5.00;;;14.10;99.20;14.20;98630.00;;;;338436;28;97063;-88
2021/04/29 00:17:41;;;;;;;5.80;5.25;;;14.10;99.20;14.20;98633.00;;;;340238;28;83748;-89
2021/04/29 00:17:53;;;;;;;5.97;5.38;;;14.10;99.20;14.20;98639.00;;;;338109;28;95570;-89
2021/04/29 00:18:04;;;;;;;6.28;5.53;;;14.10;99.20;14.20;98635.00;;;;337876;28;83346;-89
2021/04/29 00:18:16;;;;;;;6.13;5.53;;;14.20;99.30;14.10;98638.00;;;;336853;28;95690;-89
2021/04/29 00:18:28;;;;;;;6.00;5.40;;;14.10;99.20;13.90;98639.00;;;;336225;28;84833;-89
2021/04/29 00:18:39;;;;;;;5.35;4.85;;;14.10;99.20;13.80;98628.00;;;;335733;28;95880;-88
2021/04/29 00:18:51;;;;;;;5.60;4.80;;;14.10;99.30;14.00;98639.00;;;;337793;28;83990;-88
2021/04/29 00:19:02;;;;;;;6.50;5.18;;;14.10;99.30;14.00;98645.00;;;;336923;28;95852;-88
2021/04/29 00:19:14;;;;;;;6.22;5.15;;;14.10;99.30;14.00;98636.00;;;;337739;28;84559;-89
2021/04/29 00:19:29;;;;;;;5.95;4.97;;;14.10;99.30;14.00;98639.00;;;;336973;28;97417;-89
2021/04/29 00:19:40;;;;;;;6.20;5.20;;;14.10;99.30;13.80;98628.00;;;;338903;28;84847;-89
2021/04/29 00:19:52;;;;;;;6.30;5.53;;;14.10;99.20;13.90;98634.00;;;;338289;28;97729;-89
2021/04/29 00:20:15;;;;;;;6.07;5.57;;;14.10;99.20;14.00;98636.00;;;;337746;28;83722;-88
2021/04/29 00:20:27;;;;;;;5.93;5.32;;;14.10;99.20;14.10;98635.00;;;;337662;28;96670;-89
2021/04/29 00:20:38;;;;;;;5.85;5.00;;;14.10;99.20;13.80;98639.00;;;;337674;28;83946;-89
2021/04/29 00:20:55;;;;;;;7.85;5.30;;;14.10;99.30;13.80;98637.00;;;;337168;28;93837;-89
2021/04/29 00:21:06;;;;;;;7.70;5.00;;;14.10;99.20;13.80;98642.00;;;;340252;28;85038;-88
2021/04/29 00:21:18;;;;;;;5.80;4.78;;;14.00;99.20;13.80;98624.00;;;;338194;28;95689;-88
2021/04/29 00:21:29;;;;;;;5.47;4.85;;;14.00;99.20;13.90;98636.00;;;;336392;28;85051;-89
2021/04/29 00:21:40;;;;;;;5.47;4.88;;;14.00;99.20;14.00;98640.00;;;;336874;28;95645;-89
2021/04/29 00:21:52;;;;;;;5.32;4.82;;;14.00;99.30;13.90;98628.00;;;;340092;28;83685;-89
2021/04/29 00:22:03;;;;;;;6.10;5.30;;;14.00;99.20;13.80;98632.00;;;;335744;28;94653;-88
2021/04/29 00:22:15;;;;;;;6.47;5.50;;;14.00;99.20;13.70;98635.00;;;;337606;28;83987;-88
2021/04/29 00:22:27;;;;;;;6.07;5.10;;;14.00;99.30;13.90;98640.00;;;;336989;28;94668;-88
2021/04/29 00:22:38;;;;;;;5.55;4.80;;;14.00;99.30;14.00;98630.00;;;;339085;28;84108;-89
2021/04/29 00:22:49;;;;;;;8.32;4.88;;;14.00;99.30;14.00;98627.00;;;;337072;28;96209;-89
2021/04/29 00:23:01;;;;;;;8.45;5.13;;;14.00;99.30;13.90;98625.00;;;;337676;28;84611;-89
2021/04/29 00:23:12;;;;;;;8.35;5.07;;;14.00;99.30;13.80;98629.00;;;;337445;28;95956;-89
2021/04/29 00:23:27;;;;;;;5.85;4.78;;;14.00;99.20;13.80;98632.00;;;;337462;28;84672;-88
2021/04/29 00:23:39;;;;;;;5.95;4.88;;;14.00;99.40;13.80;98631.00;;;;335894;28;96319;-89
2021/04/29 00:23:50;;;;;;;6.18;4.93;;;14.00;99.20;13.80;98634.00;;;;338996;28;84621;-89
2021/04/29 00:24:02;;;;;;;5.20;4.70;;;13.90;99.20;13.70;98634.00;;;;338377;28;93293;-87
2021/04/29 00:24:14;;;;;;;6.03;4.97;;;13.90;99.30;13.80;98634.00;;;;339681;28;83908;-89
2021/04/29 00:24:25;;;;;;;10.18;5.28;;;13.90;99.30;13.80;98630.00;;;;336971;28;96777;-89
2021/04/29 00:24:37;;;;;;;11.98;5.32;;;13.90;99.20;13.90;98631.00;;;;339051;28;84856;-88
2021/04/29 00:24:48;;;;;;;10.07;5.53;;;13.90;99.30;14.00;98637.00;;;;336997;28;96972;-88
2021/04/29 00:24:59;;;;;;;6.68;5.25;;;13.90;99.40;14.00;98632.00;;;;335077;29;84906;-89
2021/04/29 00:25:11;;;;;;;5.80;5.20;;;13.90;99.40;13.90;98631.00;;;;339639;28;93247;-88
2021/04/29 00:25:23;;;;;;;5.35;4.85;;;13.90;99.40;13.90;98633.00;;;;337673;28;84871;-89
2021/04/29 00:25:34;;;;;;;5.45;4.93;;;13.90;99.40;13.90;98632.00;;;;339542;28;94530;-89
2021/04/29 00:25:45;;;;;;;5.30;4.80;;;14.00;99.40;14.00;98636.00;;;;340100;28;84578;-88
2021/04/29 00:25:57;;;;;;;6.35;5.25;;;13.90;99.40;14.00;98643.00;;;;338453;28;94353;-88
2021/04/29 00:26:09;;;;;;;7.38;5.68;;;14.00;99.40;14.00;98637.00;;;;338939;28;83338;-89
2021/04/29 00:26:20;;;;;;;6.72;5.72;;;14.00;99.40;14.10;98636.00;;;;336641;28;96334;-88
2021/04/29 00:26:35;;;;;;;5.85;5.32;;;14.00;99.40;14.10;98635.00;;;;336359;28;84791;-89
2021/04/29 00:26:46;;;;;;;5.90;5.40;;;14.00;99.40;14.10;98638.00;;;;339512;28;94388;-88
2021/04/29 00:26:58;;;;;;;5.90;5.30;;;14.00;99.40;14.10;98639.00;;;;337725;28;85099;-89
2021/04/29 00:27:09;;;;;;;5.82;5.05;;;14.00;99.40;14.10;98639.00;;;;338256;28;97205;-88
2021/04/29 00:27:20;;;;;;;6.00;5.07;;;14.00;99.40;14.10;98640.00;;;;337734;28;84529;-90
2021/04/29 00:27:32;;;;;;;5.72;5.13;;;14.00;99.40;14.00;98637.00;;;;338302;28;96450;-89
2021/04/29 00:27:43;;;;;;;5.65;5.13;;;14.00;99.30;14.10;98639.00;;;;336429;28;83367;-88
2021/04/29 00:27:54;;;;;;;5.72;5.13;;;14.00;99.60;14.00;98637.00;;;;337056;28;96674;-88
2021/04/29 00:28:06;;;;;;;6.10;5.13;;;14.00;99.30;14.10;98637.00;;;;337741;28;84558;-88
2021/04/29 00:28:17;;;;;;;7.03;5.60;;;14.00;99.30;14.20;98636.00;;;;337107;28;94716;-88
2021/04/29 00:28:28;;;;;;;6.78;5.75;;;14.00;99.40;14.20;98634.00;;;;340417;28;83411;-88
2021/04/29 00:28:44;;;;;;;5.93;5.10;;;14.00;99.40;14.30;98632.00;;;;338164;28;92757;-89
2021/04/29 00:28:55;;;;;;;5.55;4.90;;;14.00;99.40;14.30;98633.00;;;;338779;28;83885;-88
2021/04/29 00:29:07;;;;;;;6.60;5.00;;;14.10;99.40;14.40;98636.00;;;;336766;28;94619;-88
2021/04/29 00:29:18;;;;;;;7.50;5.32;;;14.10;99.50;14.40;98634.00;;;;337625;28;82544;-88
2021/04/29 00:29:29;;;;;;;6.00;4.95;;;14.10;99.40;14.40;98631.00;;;;338261;28;96740;-88
2021/04/29 00:29:41;;;;;;;5.68;5.15;;;14.10;99.40;14.40;98633.00;;;;336965;28;83156;-88
2021/04/29 00:29:52;;;;;;;5.55;5.05;;;14.10;99.40;14.40;98637.00;;;;338192;28;96283;-88
2021/04/29 00:30:05;;;;;;;5.82;5.28;;;14.20;99.40;14.40;98626.00;;;;340396;28;82435;-88
2021/04/29 00:30:21;;;;;;;8.90;5.28;;;14.20;99.40;14.30;98638.00;;;;338411;28;94567;-89
2021/04/29 00:30:32;;;;;;;9.77;5.30;;;14.20;99.30;14.20;98628.00;;;;337680;28;84740;-88
2021/04/29 00:30:48;;;;;;;10.23;5.20;;;14.10;99.20;14.20;98632.00;;;;338294;28;94885;-88
2021/04/29 00:31:02;;;;;;;6.43;5.30;;;14.10;99.20;14.20;98629.00;;;;337694;28;85057;-89
2021/04/29 00:31:13;;;;;;;6.80;5.60;;;14.10;99.10;14.20;98627.00;;;;338127;28;96430;-89
2021/04/29 00:31:25;;;;;;;6.32;5.43;;;14.10;99.20;14.20;98623.00;;;;337621;28;84018;-88
2021/04/29 00:31:36;;;;;;;7.18;5.75;;;14.10;99.20;14.20;98628.00;;;;338314;28;95959;-88
2021/04/29 00:31:48;;;;;;;8.90;5.80;;;14.10;99.10;14.20;98620.00;;;;337672;28;83373;-89
2021/04/29 00:31:59;;;;;;;9.75;5.90;;;14.10;99.10;14.20;98623.00;;;;338321;28;97149;-88
2021/04/29 00:32:11;;;;;;;7.95;5.35;;;14.10;99.10;14.10;98631.00;;;;337700;28;83944;-89
2021/04/29 00:32:23;;;;;;;7.45;5.53;;;14.10;99.00;14.00;98621.00;;;;337125;28;96944;-88
2021/04/29 00:32:35;;;;;;;6.85;5.13;;;14.10;99.00;14.10;98627.00;;;;337686;28;85388;-88
2021/04/29 00:32:47;;;;;;;6.95;4.88;;;14.10;99.00;14.20;98628.00;;;;339526;28;95839;-88
2021/04/29 00:32:58;;;;;;;7.25;4.82;;;14.10;99.40;14.20;98625.00;;;;337720;28;84122;-88
2021/04/29 00:33:10;;;;;;;6.80;4.80;;;14.10;99.10;14.30;98623.00;;;;335764;28;96614;-89
2021/04/29 00:33:22;;;;;;;5.55;4.53;;;14.10;99.20;14.20;98622.00;;;;337683;28;84514;-89
2021/04/29 00:33:33;;;;;;;5.28;4.78;;;14.10;99.10;14.20;98632.00;;;;336868;28;96177;-89
2021/04/29 00:33:44;;;;;;;5.53;5.03;;;14.10;99.00;14.20;98630.00;;;;337650;28;83652;-88
2021/04/29 00:33:58;;;;;;;6.03;5.43;;;14.20;99.00;14.10;98637.00;;;;339691;28;96670;-88
2021/04/29 00:34:10;;;;;;;6.18;5.57;;;14.10;98.90;14.00;98626.00;;;;336436;28;83718;-88
2021/04/29 00:34:22;;;;;;;6.00;5.47;;;14.10;98.90;13.90;98625.00;;;;336975;28;96973;-90
2021/04/29 00:34:33;;;;;;;5.50;5.00;;;14.10;99.00;13.80;98629.00;;;;337608;28;84531;-88
2021/04/29 00:34:44;;;;;;;5.38;4.88;;;14.10;99.30;13.80;98628.00;;;;337096;28;95578;-88
2021/04/29 00:34:56;;;;;;;5.63;5.13;;;14.10;99.10;13.80;98633.00;;;;339079;28;83449;-89
2021/04/29 00:35:08;;;;;;;6.03;5.38;;;14.10;99.10;13.90;98631.00;;;;335375;28;95954;-88
2021/04/29 00:35:19;;;;;;;5.85;5.18;;;14.10;99.00;14.00;98627.00;;;;338783;28;83370;-89
2021/04/29 00:35:31;;;;;;;6.53;5.00;;;14.10;99.10;14.00;98629.00;;;;338369;28;97383;-89
2021/04/29 00:35:43;;;;;;;6.35;5.15;;;14.10;99.10;14.00;98634.00;;;;336678;28;84225;-88
2021/04/29 00:35:54;;;;;;;6.53;5.70;;;14.10;99.10;14.10;98627.00;;;;336771;28;95767;-89
2021/04/29 00:36:06;;;;;;;7.30;5.70;;;14.10;99.20;14.10;98628.00;;;;337741;28;85084;-88
2021/04/29 00:36:17;;;;;;;6.57;5.38;;;14.10;99.30;14.10;98630.00;;;;335646;28;94662;-89
2021/04/29 00:36:29;;;;;;;6.47;5.15;;;14.10;99.20;14.20;98625.00;;;;337621;28;84404;-88
2021/04/29 00:36:40;;;;;;;5.68;5.00;;;14.10;99.30;14.20;98633.00;;;;336909;28;95398;-88
2021/04/29 00:36:52;;;;;;;6.00;5.30;;;14.10;99.30;14.20;98615.00;;;;337871;28;83344;-88
2021/04/29 00:37:04;;;;;;;5.90;5.30;;;14.10;99.30;14.00;98631.00;;;;336964;28;96287;-88
2021/04/29 00:37:15;;;;;;;5.70;5.20;;;14.10;99.30;14.20;98628.00;;;;338958;28;84160;-88
2021/04/29 00:37:26;;;;;;;5.63;5.13;;;14.10;99.30;14.20;98626.00;;;;339684;28;94096;-88
2021/04/29 00:37:38;;;;;;;5.53;4.97;;;14.10;99.30;14.20;98623.00;;;;337709;28;84942;-89
2021/04/29 00:37:49;;;;;;;6.00;5.07;;;14.10;99.30;14.10;98627.00;;;;338140;28;95715;-89
2021/04/29 00:38:00;;;;;;;6.22;5.20;;;14.10;99.30;14.20;98628.00;;;;338906;28;83395;-89
2021/04/29 00:38:12;;;;;;;6.38;5.15;;;14.10;99.30;14.20;98633.00;;;;337703;28;97474;-89
2021/04/29 00:38:24;;;;;;;5.43;4.90;;;14.10;99.20;14.20;98632.00;;;;338956;28;84809;-88
2021/04/29 00:38:35;;;;;;;5.72;4.95;;;14.10;99.20;14.20;98623.00;;;;334482;29;96167;-89
2021/04/29 00:38:46;;;;;;;5.72;5.07;;;14.10;99.30;14.20;98628.00;;;;336390;28;84285;-88
2021/04/29 00:38:58;;;;;;;5.70;4.72;;;14.10;99.30;14.10;98630.00;;;;337010;28;95900;-88
2021/04/29 00:39:09;;;;;;;5.85;4.65;;;14.10;99.20;14.10;98630.00;;;;336263;28;84910;-89
2021/04/29 00:39:23;;;;;;;6.40;4.95;;;14.10;99.10;14.20;98629.00;;;;335710;28;97243;-88
2021/04/29 00:39:34;;;;;;;7.80;5.70;;;14.10;99.20;14.20;98625.00;;;;337768;28;83383;-88
2021/04/29 00:39:45;;;;;;;7.07;5.63;;;14.10;99.20;14.10;98630.00;;;;336955;28;95828;-88
2021/04/29 00:39:57;;;;;;;5.95;5.35;;;14.10;99.20;14.10;98633.00;;;;338997;28;84532;-88
2021/04/29 00:40:09;;;;;;;5.90;5.30;;;14.10;99.20;14.10;98637.00;;;;337013;28;96212;-89
2021/04/29 00:40:20;;;;;;;6.80;5.20;;;14.10;99.20;14.20;98630.00;;;;338767;28;84991;-89
2021/04/29 00:40:32;;;;;;;6.68;5.13;;;14.10;99.30;14.20;98629.00;;;;338314;28;95088;-89
2021/04/29 00:40:44;;;;;;;6.65;5.05;;;14.10;99.30;14.20;98638.00;;;;338928;28;84454;-88
2021/04/29 00:40:55;;;;;;;5.60;5.10;;;14.10;99.30;14.20;98626.00;;;;339671;28;96664;-89
2021/04/29 00:41:07;;;;;;;6.43;5.43;;;14.10;99.30;14.20;98630.00;;;;336134;28;83346;-89
2021/04/29 00:41:18;;;;;;;6.40;5.43;;;14.10;99.50;14.10;98631.00;;;;338012;28;96926;-88
2021/04/29 00:41:30;;;;;;;5.97;5.38;;;14.10;99.20;14.10;98637.00;;;;340278;28;83533;-88
2021/04/29 00:41:41;;;;;;;5.55;5.05;;;14.10;99.20;14.20;98628.00;;;;339541;28;96910;-88
2021/04/29 00:41:52;;;;;;;5.75;5.22;;;14.10;99.20;14.10;98631.00;;;;338949;28;84172;-89
2021/04/29 00:42:04;;;;;;;5.93;5.35;;;14.10;99.20;14.00;98623.00;;;;339632;28;95765;-89
2021/04/29 00:42:16;;;;;;;6.10;5.55;;;14.10;99.20;13.90;98630.00;;;;339170;28;84083;-89
2021/04/29 00:42:27;;;;;;;5.75;5.25;;;14.10;99.20;14.00;98637.00;;;;337044;28;93981;-88
2021/04/29 00:42:39;;;;;;;5.75;5.25;;;14.10;99.10;14.10;98629.00;;;;336407;28;83563;-88
2021/04/29 00:42:51;;;;;;;6.22;5.63;;;14.10;99.20;14.10;98632.00;;;;335445;28;94944;-89
2021/04/29 00:43:02;;;;;;;6.43;5.65;;;14.10;99.50;14.20;98632.00;;;;338904;28;83417;-89
2021/04/29 00:43:14;;;;;;;7.00;5.78;;;14.10;99.30;14.10;98636.00;;;;336902;28;97087;-89
2021/04/29 00:43:25;;;;;;;7.35;5.63;;;14.10;99.20;14.00;98635.00;;;;337440;28;83714;-88
2021/04/29 00:43:37;;;;;;;6.53;5.15;;;14.10;99.20;13.90;98627.00;;;;337066;28;94700;-88
2021/04/29 00:43:48;;;;;;;5.90;4.75;;;14.10;99.20;14.20;98636.00;;;;338999;28;83755;-89
2021/04/29 00:43:59;;;;;;;6.70;5.20;;;14.10;99.30;14.20;98636.00;;;;338361;28;94502;-89
2021/04/29 00:44:11;;;;;;;7.45;5.50;;;14.10;99.30;13.90;98636.00;;;;340397;28;84781;-89
2021/04/29 00:44:23;;;;;;;6.90;5.57;;;14.10;99.30;13.90;98636.00;;;;339433;28;94823;-89
2021/04/29 00:44:34;;;;;;;6.30;5.38;;;14.10;99.30;14.00;98627.00;;;;337569;28;84911;-89
2021/04/29 00:44:46;;;;;;;6.88;5.50;;;14.10;99.20;14.10;98632.00;;;;338437;28;94483;-89
2021/04/29 00:44:57;;;;;;;6.35;5.57;;;14.10;99.30;14.10;98636.00;;;;337738;28;83784;-88
2021/04/29 00:45:12;;;;;;;6.40;5.80;;;14.10;99.30;14.00;98631.00;;;;338165;28;97010;-89
2021/04/29 00:45:24;;;;;;;6.80;6.05;;;14.10;99.30;13.90;98634.00;;;;337585;28;83481;-88
2021/04/29 00:45:35;;;;;;;7.20;5.88;;;14.10;99.20;13.80;98636.00;;;;339697;28;96827;-88
2021/04/29 00:45:47;;;;;;;6.97;5.82;;;14.10;99.30;13.70;98634.00;;;;336326;28;83347;-88
2021/04/29 00:45:59;;;;;;;6.03;5.35;;;14.10;99.30;13.60;98625.00;;;;336809;28;96089;-88
2021/04/29 00:46:13;;;;;;;6.55;5.78;;;14.00;99.30;13.60;98630.00;;;;338811;28;85002;-88
2021/04/29 00:46:24;;;;;;;6.93;6.20;;;14.00;99.30;13.60;98636.00;;;;338270;28;95062;-89
2021/04/29 00:46:36;;;;;;;7.32;6.10;;;14.00;99.30;13.50;98634.00;;;;339087;28;83869;-88
2021/04/29 00:46:47;;;;;;;6.72;5.88;;;14.00;99.30;13.50;98641.00;;;;339575;28;94565;-88
2021/04/29 00:46:59;;;;;;;6.60;5.90;;;14.00;99.30;13.50;98640.00;;;;337571;28;83843;-89
2021/04/29 00:47:11;;;;;;;6.57;5.78;;;13.90;99.20;13.40;98638.00;;;;337320;28;93050;-88
2021/04/29 00:47:22;;;;;;;6.32;5.70;;;13.90;99.20;13.40;98640.00;;;;336548;28;84030;-89
2021/04/29 00:47:34;;;;;;;6.72;6.03;;;13.90;99.30;13.40;98635.00;;;;338341;28;95831;-88
2021/04/29 00:47:48;;;;;;;7.30;6.35;;;13.90;99.30;13.50;98640.00;;;;340044;28;83965;-89
2021/04/29 00:47:59;;;;;;;6.82;6.07;;;13.90;99.30;13.50;98626.00;;;;338228;28;96493;-88
2021/04/29 00:48:11;;;;;;;6.68;5.82;;;13.90;99.30;13.50;98637.00;;;;340269;28;83610;-89
2021/04/29 00:48:23;;;;;;;6.60;6.00;;;13.90;99.40;13.50;98633.00;;;;338361;28;95101;-88
2021/04/29 00:48:35;;;;;;;6.45;5.93;;;13.90;99.40;13.50;98639.00;;;;337596;28;84822;-89
2021/04/29 00:48:47;;;;;;;6.38;5.78;;;13.80;99.50;13.60;98637.00;;;;337012;28;95539;-89
2021/04/29 00:48:58;;;;;;;6.65;6.03;;;13.80;99.50;13.60;98638.00;;;;336105;28;84049;-90
2021/04/29 00:49:09;;;;;;;7.10;6.40;;;13.80;99.60;13.60;98635.00;;;;335691;28;96230;-88
2021/04/29 00:49:21;;;;;;;7.10;6.28;;;13.80;99.60;13.50;98632.00;;;;337616;28;85132;-88
2021/04/29 00:49:34;;;;;;;7.28;5.97;;;13.80;99.60;13.40;98631.00;;;;339630;28;96961;-88
2021/04/29 00:49:47;;;;;;;6.88;5.95;;;13.80;99.60;13.40;98633.00;;;;336301;28;83845;-89
2021/04/29 00:49:58;;;;;;;6.68;5.93;;;13.80;99.60;13.40;98633.00;;;;339649;28;95897;-88
2021/04/29 00:50:11;;;;;;;6.93;5.93;;;13.80;99.70;13.50;98633.00;;;;335937;28;84558;-88
2021/04/29 00:50:24;;;;;;;6.90;6.07;;;13.70;99.70;13.60;98635.00;;;;337290;28;95092;-89
2021/04/29 00:50:36;;;;;;;7.15;6.13;;;13.80;99.70;13.60;98635.00;;;;336469;28;83477;-89
2021/04/29 00:50:48;;;;;;;7.18;6.10;;;13.80;99.70;13.60;98639.00;;;;339640;28;96984;-88
2021/04/29 00:50:59;;;;;;;7.97;6.38;;;13.70;99.70;13.50;98629.00;;;;335069;29;85448;-88
2021/04/29 00:51:11;;;;;;;8.40;6.32;;;13.70;99.70;13.50;98635.00;;;;339461;28;96587;-88
2021/04/29 00:51:24;;;;;;;7.45;6.30;;;13.70;99.70;13.50;98638.00;;;;340306;28;83284;-88
2021/04/29 00:51:35;;;;;;;7.05;6.22;;;13.70;99.70;13.40;98635.00;;;;338197;28;95070;-88
2021/04/29 00:51:46;;;;;;;7.40;6.50;;;13.70;99.70;13.40;98626.00;;;;339007;28;83400;-88
2021/04/29 00:51:57;;;;;;;7.88;6.40;;;13.70;99.70;13.50;98631.00;;;;336924;28;97184;-89
2021/04/29 00:52:09;;;;;;;7.65;6.43;;;13.70;99.80;13.50;98634.00;;;;337675;28;84513;-88
2021/04/29 00:52:21;;;;;;;7.45;6.30;;;13.70;99.80;13.50;98635.00;;;;335706;28;92679;-88
2021/04/29 00:52:33;;;;;;;7.82;5.97;;;13.70;99.80;13.50;98638.00;;;;336383;28;83851;-88
2021/04/29 00:52:44;;;;;;;6.72;5.68;;;13.70;99.80;13.50;98639.00;;;;334471;29;97144;-88
2021/04/29 00:52:56;;;;;;;7.18;5.85;;;13.70;99.80;13.50;98635.00;;;;338701;28;84516;-89
2021/04/29 00:53:08;;;;;;;6.95;5.90;;;13.70;99.80;13.50;98637.00;;;;336845;28;97092;-88
2021/04/29 00:53:19;;;;;;;6.88;5.72;;;13.70;99.80;13.60;98637.00;;;;341510;28;84617;-89